Weather at Vienna International Airport

Public forecast

Using degrees Celsius for public forecast. Weather courtesy of forecast.io.

Current aviation weather report (METAR) for Vienna International Airport

Retrieved 2020/10/27 08:20 UTC (37 minutes ago):

LOWW 270820Z 29009KT 9999 FEW015 BKN022 09/06 Q1012 NOSIG

Aviation forecast (TAF) for Vienna International Airport

Retrieved 2020/10/27 09:20 UTC (0 seconds ago):

TAF LOWW 270815Z 2709/2815 29010KT 9999 FEW010 OVC020 TX13/2814Z TN05/2806Z TEMPO 2709/2714 -RA FM280000 VRB02KT CAVOK